Time;durP1;ratioP1;P1;durP2;ratioP2;P2;SDS_P1;SDS_P2;PMS_P1;PMS_P2;Temp;Humidity;BMP_temperature;BMP_pressure;BME280_temperature;BME280_humidity;BME280_pressure;Samples;Min_cycle;Max_cycle;Signal;HPM_P1;HPM_P2
2022/09/11 00:01:49;;;;;;;35.30;22.17;;;13.60;99.90;;;;;;4980844;28;20048;-85
2022/09/11 00:04:15;;;;;;;34.47;21.45;;;13.60;99.90;;;;;;4997171;28;20039;-85
2022/09/11 00:06:42;;;;;;;32.85;21.88;;;13.50;99.90;;;;;;4987820;28;20076;-85
2022/09/11 00:09:08;;;;;;;33.00;21.48;;;13.50;99.90;;;;;;4981784;28;20377;-86
2022/09/11 00:11:43;;;;;;;32.88;21.92;;;13.40;99.90;;;;;;4996440;28;20150;-85
2022/09/11 00:14:12;;;;;;;35.28;22.17;;;13.40;99.90;;;;;;4977603;28;20093;-85
2022/09/11 00:16:41;;;;;;;37.90;23.40;;;13.30;99.90;;;;;;4996152;28;20100;-85
2022/09/11 00:19:20;;;;;;;35.60;23.38;;;13.30;99.90;;;;;;5007967;28;20108;-85
2022/09/11 00:21:49;;;;;;;38.85;23.73;;;13.30;99.90;;;;;;4981200;28;20045;-85
2022/09/11 00:24:15;;;;;;;40.63;24.30;;;13.20;99.90;;;;;;4996283;28;20120;-85
2022/09/11 00:26:41;;;;;;;37.67;23.73;;;13.20;99.90;;;;;;4996857;28;20046;-87
2022/09/11 00:29:07;;;;;;;35.83;24.77;;;13.10;99.90;;;;;;5010343;28;20065;-85
2022/09/11 00:31:33;;;;;;;38.25;23.73;;;13.20;99.90;;;;;;4998758;28;20035;-85
2022/09/11 00:33:59;;;;;;;42.70;24.88;;;13.10;99.90;;;;;;5011891;28;20050;-85
2022/09/11 00:36:28;;;;;;;36.03;23.17;;;13.10;99.90;;;;;;4997066;28;20594;-85
2022/09/11 00:38:55;;;;;;;49.60;25.75;;;13.00;99.90;;;;;;5005657;28;20042;-86
2022/09/11 00:41:37;;;;;;;35.33;24.00;;;13.00;99.90;;;;;;4983850;28;20057;-86
2022/09/11 00:44:17;;;;;;;39.00;24.10;;;13.00;99.90;;;;;;4981188;28;20099;-85
2022/09/11 00:46:55;;;;;;;41.17;25.15;;;13.00;99.90;;;;;;4997208;28;20449;-85
2022/09/11 00:49:35;;;;;;;40.47;25.02;;;12.90;99.90;;;;;;5010671;28;20508;-85
2022/09/11 00:52:10;;;;;;;43.20;26.33;;;12.90;99.90;;;;;;4997406;28;20468;-85
2022/09/11 00:55:07;;;;;;;42.63;25.67;;;12.90;99.90;;;;;;4996223;28;20116;-87
2022/09/11 00:57:43;;;;;;;40.40;26.42;;;12.90;99.90;;;;;;4966468;28;20046;-85
2022/09/11 01:00:12;;;;;;;44.53;26.65;;;12.90;99.90;;;;;;4973604;28;20046;-86
2022/09/11 01:02:41;;;;;;;44.95;25.95;;;12.90;99.90;;;;;;5000217;28;20105;-85
2022/09/11 01:05:08;;;;;;;44.42;26.90;;;12.90;99.90;;;;;;5012809;28;20045;-85
2022/09/11 01:07:35;;;;;;;39.97;24.90;;;12.90;99.90;;;;;;4991705;28;20073;-85
2022/09/11 01:10:04;;;;;;;44.45;26.05;;;12.80;99.90;;;;;;4983325;28;20048;-85
2022/09/11 01:12:37;;;;;;;48.67;26.88;;;12.90;99.90;;;;;;5005167;28;20077;-85
2022/09/11 01:15:27;;;;;;;42.88;26.27;;;12.90;99.90;;;;;;4991510;28;20050;-85
2022/09/11 01:18:12;;;;;;;41.17;25.20;;;12.90;99.90;;;;;;5015036;28;20052;-85
2022/09/11 01:21:03;;;;;;;48.13;26.30;;;12.80;99.90;;;;;;4987106;28;20042;-85
2022/09/11 01:23:45;;;;;;;45.17;25.38;;;12.80;99.90;;;;;;4995394;28;20054;-85
2022/09/11 01:26:21;;;;;;;46.83;26.30;;;12.80;99.90;;;;;;4978668;28;20050;-85
2022/09/11 01:29:05;;;;;;;44.17;26.88;;;12.70;99.90;;;;;;4997730;28;20488;-85
2022/09/11 01:31:39;;;;;;;42.08;25.95;;;12.70;99.90;;;;;;4991784;28;20042;-85
2022/09/11 01:34:16;;;;;;;47.38;26.65;;;12.70;99.90;;;;;;5000094;28;20121;-86
2022/09/11 01:36:54;;;;;;;44.88;26.08;;;12.70;99.90;;;;;;4998149;28;20154;-86
2022/09/11 01:39:24;;;;;;;42.92;24.30;;;12.70;99.90;;;;;;4978538;28;20070;-85
2022/09/11 01:41:59;;;;;;;43.58;25.98;;;12.70;99.90;;;;;;5010008;28;20042;-85
2022/09/11 01:44:50;;;;;;;43.45;25.60;;;12.70;99.90;;;;;;4989075;28;20100;-85
2022/09/11 01:47:18;;;;;;;45.67;25.63;;;12.70;99.90;;;;;;4977360;28;20054;-86
2022/09/11 01:49:56;;;;;;;48.30;25.27;;;12.70;99.90;;;;;;5009089;28;20046;-85
2022/09/11 01:52:28;;;;;;;36.30;23.88;;;12.60;99.90;;;;;;4984188;28;20132;-85
2022/09/11 01:55:09;;;;;;;45.47;25.30;;;12.70;99.90;;;;;;5012258;28;20045;-85
2022/09/11 01:57:50;;;;;;;42.55;25.08;;;12.70;99.90;;;;;;4994154;28;20082;-86
2022/09/11 02:00:16;;;;;;;46.00;24.90;;;12.70;99.90;;;;;;5010049;28;20050;-85
2022/09/11 02:02:47;;;;;;;42.50;24.40;;;12.70;99.90;;;;;;5010978;28;20412;-85
2022/09/11 02:05:18;;;;;;;41.65;23.77;;;12.70;99.90;;;;;;5009736;28;20053;-85
2022/09/11 02:07:49;;;;;;;46.88;24.98;;;12.60;99.90;;;;;;5010027;28;20140;-85
2022/09/11 02:10:24;;;;;;;44.38;24.58;;;12.60;99.90;;;;;;5009478;28;20086;-86
2022/09/11 02:13:05;;;;;;;45.70;24.10;;;12.60;99.90;;;;;;4994562;28;20054;-85
2022/09/11 02:15:33;;;;;;;;;;;12.60;99.90;;;;;;5002147;28;20042;-85
2022/09/11 02:18:20;;;;;;;71.82;26.42;;;12.60;99.90;;;;;;4996556;28;20311;-85
2022/09/11 02:20:46;;;;;;;76.03;26.15;;;12.60;99.90;;;;;;4995542;28;20038;-85
2022/09/11 02:23:15;;;;;;;56.15;24.27;;;12.60;99.90;;;;;;4994480;28;20046;-85
2022/09/11 02:25:41;;;;;;;43.05;22.48;;;12.70;99.90;;;;;;5006347;28;20046;-85
2022/09/11 02:28:07;;;;;;;36.92;23.05;;;12.60;99.90;;;;;;4994278;28;20112;-85
2022/09/11 02:30:33;;;;;;;40.22;22.65;;;12.60;99.90;;;;;;4992702;28;20460;-85
2022/09/11 02:32:59;;;;;;;40.03;22.98;;;12.60;99.90;;;;;;5009113;28;20131;-85
2022/09/11 02:35:30;;;;;;;41.30;23.30;;;12.60;99.90;;;;;;4989579;28;20093;-85
2022/09/11 02:38:28;;;;;;;;;;;12.60;99.90;;;;;;4994455;28;20492;-85
2022/09/11 02:41:22;;;;;;;37.03;22.48;;;12.50;99.90;;;;;;4955140;28;19922;-85
2022/09/11 02:44:19;;;;;;;33.88;21.13;;;12.50;99.90;;;;;;4985238;28;20093;-85
2022/09/11 02:47:02;;;;;;;35.63;21.95;;;12.40;99.90;;;;;;5008017;28;20179;-85
2022/09/11 02:49:28;;;;;;;33.22;22.35;;;12.40;99.90;;;;;;5013687;28;20056;-85
2022/09/11 02:52:06;;;;;;;39.55;21.80;;;12.40;99.90;;;;;;4994880;28;20042;-85
2022/09/11 02:55:08;;;;;;;31.23;20.17;;;12.40;99.90;;;;;;5013628;28;20046;-85
2022/09/11 02:57:41;;;;;;;35.83;21.25;;;12.30;99.90;;;;;;4991568;28;20050;-85
2022/09/11 03:00:08;;;;;;;33.30;20.33;;;12.30;99.90;;;;;;5008945;28;20500;-85
2022/09/11 03:02:38;;;;;;;34.40;21.25;;;12.30;99.90;;;;;;4957100;28;20101;-85
2022/09/11 03:05:05;;;;;;;34.08;21.30;;;12.30;99.90;;;;;;4965482;28;20069;-85
2022/09/11 03:07:32;;;;;;;35.70;21.13;;;12.30;99.90;;;;;;4978643;28;20092;-85
2022/09/11 03:09:58;;;;;;;33.88;20.05;;;12.30;99.90;;;;;;4982616;28;20097;-85
2022/09/11 03:12:23;;;;;;;30.77;20.08;;;12.20;99.90;;;;;;5006154;28;20046;-85
2022/09/11 03:14:50;;;;;;;101.25;23.63;;;12.30;99.90;;;;;;4995475;28;20743;-86
2022/09/11 03:17:16;;;;;;;31.17;19.63;;;12.30;99.90;;;;;;4994370;28;20395;-85
2022/09/11 03:19:42;;;;;;;25.73;14.27;;;12.40;99.90;;;;;;4987692;28;20040;-85
2022/09/11 03:22:08;;;;;;;51.95;18.15;;;12.40;99.90;;;;;;5008587;28;20042;-85
2022/09/11 03:24:33;;;;;;;65.22;20.17;;;12.40;99.90;;;;;;4992795;28;20043;-85
2022/09/11 03:26:59;;;;;;;32.90;18.70;;;12.50;99.90;;;;;;5011003;28;20054;-85
2022/09/11 03:29:25;;;;;;;30.23;18.75;;;12.40;99.90;;;;;;4963485;28;20046;-87
2022/09/11 03:31:51;;;;;;;41.58;19.63;;;12.40;99.90;;;;;;4992227;28;20046;-85
2022/09/11 03:34:16;;;;;;;30.52;17.80;;;12.40;99.90;;;;;;5008340;28;20068;-85
2022/09/11 03:36:43;;;;;;;27.45;17.60;;;12.40;99.90;;;;;;5010966;28;20112;-85
2022/09/11 03:39:08;;;;;;;27.90;18.20;;;12.40;99.90;;;;;;5007343;28;20049;-85
2022/09/11 03:41:34;;;;;;;23.77;17.33;;;12.30;99.90;;;;;;5006122;28;20042;-85
2022/09/11 03:44:00;;;;;;;28.83;18.30;;;12.20;99.90;;;;;;5013425;28;20560;-88
2022/09/11 03:46:26;;;;;;;26.60;18.02;;;12.20;99.90;;;;;;5001086;28;20050;-85
2022/09/11 03:48:52;;;;;;;26.17;17.60;;;12.20;99.90;;;;;;5013403;28;20066;-85
2022/09/11 03:51:18;;;;;;;24.38;17.83;;;12.20;99.90;;;;;;4992279;28;20507;-85
2022/09/11 03:53:44;;;;;;;25.75;17.45;;;12.10;99.90;;;;;;4996046;28;20047;-85
2022/09/11 03:56:10;;;;;;;24.15;17.17;;;12.10;99.90;;;;;;4997429;28;20050;-85
2022/09/11 03:58:36;;;;;;;21.98;15.23;;;12.10;99.90;;;;;;4996812;28;20053;-85
2022/09/11 04:01:11;;;;;;;35.42;16.80;;;12.00;99.90;;;;;;4998176;28;20129;-85
2022/09/11 04:03:38;;;;;;;31.00;16.27;;;12.00;99.90;;;;;;4977565;28;20151;-86
2022/09/11 04:06:05;;;;;;;22.10;15.77;;;12.10;99.90;;;;;;5002996;28;20046;-85
2022/09/11 04:08:32;;;;;;;19.95;16.13;;;12.00;99.90;;;;;;4999760;28;20050;-86
2022/09/11 04:11:00;;;;;;;18.90;15.25;;;12.00;99.90;;;;;;5010730;28;20045;-85
2022/09/11 04:13:31;;;;;;;28.13;13.70;;;12.00;99.90;;;;;;4994254;28;20090;-85
2022/09/11 04:16:09;;;;;;;141.18;18.10;;;12.00;99.90;;;;;;5004445;28;20045;-86
2022/09/11 04:18:37;;;;;;;52.17;14.02;;;12.00;99.90;;;;;;4970366;28;20092;-86
2022/09/11 04:21:04;;;;;;;21.63;11.60;;;12.00;99.90;;;;;;5011182;28;20050;-85
2022/09/11 04:23:30;;;;;;;16.98;12.30;;;12.00;99.90;;;;;;4976304;28;20092;-86
2022/09/11 04:25:57;;;;;;;41.15;14.93;;;12.00;99.90;;;;;;5012154;28;20045;-85
2022/09/11 04:28:22;;;;;;;40.33;15.60;;;12.10;99.90;;;;;;5015561;28;20046;-85
2022/09/11 04:30:48;;;;;;;19.10;14.52;;;12.10;99.90;;;;;;4976756;28;20052;-86
2022/09/11 04:33:14;;;;;;;31.42;16.25;;;12.10;99.90;;;;;;4995151;28;20042;-86
2022/09/11 04:35:40;;;;;;;20.63;15.80;;;12.10;99.90;;;;;;4989476;28;20136;-85
2022/09/11 04:38:06;;;;;;;21.98;15.82;;;12.00;99.90;;;;;;5013114;28;20072;-85
2022/09/11 04:40:33;;;;;;;19.35;15.63;;;12.10;99.90;;;;;;5010720;28;20554;-85
2022/09/11 04:42:59;;;;;;;21.92;15.20;;;12.00;99.90;;;;;;4963388;28;20057;-85
2022/09/11 04:45:26;;;;;;;21.23;15.60;;;12.00;99.90;;;;;;5000697;28;20104;-85
2022/09/11 04:47:52;;;;;;;22.85;14.85;;;11.90;99.90;;;;;;4986502;28;20407;-86
2022/09/11 04:50:18;;;;;;;19.48;15.60;;;11.90;99.90;;;;;;4998744;28;20046;-86
2022/09/11 04:52:44;;;;;;;20.05;15.82;;;11.80;99.90;;;;;;5015346;28;20137;-86
2022/09/11 04:55:10;;;;;;;19.58;15.77;;;11.80;99.90;;;;;;5012570;28;20092;-86
2022/09/11 04:57:37;;;;;;;16.60;13.93;;;11.70;99.90;;;;;;4978579;28;20041;-85
2022/09/11 05:00:05;;;;;;;23.02;15.82;;;11.70;99.90;;;;;;5011705;28;20141;-86
2022/09/11 05:02:30;;;;;;;18.48;15.13;;;11.70;99.90;;;;;;4988291;28;20484;-85
2022/09/11 05:04:57;;;;;;;22.80;16.50;;;11.70;99.90;;;;;;4982475;28;20045;-85
2022/09/11 05:07:24;;;;;;;48.30;17.02;;;11.60;99.90;;;;;;4981861;28;20061;-86
2022/09/11 05:09:53;;;;;;;22.70;16.20;;;11.60;99.90;;;;;;5012486;28;20053;-86
2022/09/11 05:12:20;;;;;;;22.90;16.80;;;11.60;99.90;;;;;;5015672;28;20056;-85
2022/09/11 05:14:45;;;;;;;18.75;15.63;;;11.70;99.90;;;;;;5001401;28;20050;-86
2022/09/11 05:17:12;;;;;;;21.38;16.35;;;11.60;99.90;;;;;;4993664;28;20172;-86
2022/09/11 05:19:39;;;;;;;19.90;16.02;;;11.60;99.90;;;;;;4996182;28;20121;-86
2022/09/11 05:22:05;;;;;;;21.00;15.70;;;11.60;99.90;;;;;;4987103;28;20050;-86
2022/09/11 05:24:31;;;;;;;21.95;16.73;;;11.60;99.90;;;;;;4985308;28;20490;-86
2022/09/11 05:27:00;;;;;;;23.02;14.63;;;11.60;99.90;;;;;;4991653;28;20052;-85
2022/09/11 05:29:29;;;;;;;29.38;15.15;;;11.60;99.90;;;;;;5013076;28;20034;-85
2022/09/11 05:31:57;;;;;;;58.28;17.90;;;11.70;99.90;;;;;;4999497;28;20547;-85
2022/09/11 05:34:27;;;;;;;22.30;15.18;;;11.70;99.90;;;;;;4989678;28;20054;-85
2022/09/11 05:36:56;;;;;;;18.60;16.10;;;11.80;99.90;;;;;;5006009;28;20480;-85
2022/09/11 05:39:22;;;;;;;13.80;11.27;;;11.80;99.90;;;;;;4981955;28;20097;-85
2022/09/11 05:41:52;;;;;;;12.65;10.57;;;11.80;99.90;;;;;;4997282;28;20088;-85
2022/09/11 05:44:19;;;;;;;12.30;11.10;;;11.90;99.90;;;;;;4998071;28;20037;-85
2022/09/11 05:46:45;;;;;;;12.82;11.63;;;12.00;99.90;;;;;;4989836;28;20472;-85
2022/09/11 05:49:11;;;;;;;14.45;12.95;;;12.10;99.90;;;;;;4994525;28;20058;-86
2022/09/11 05:51:38;;;;;;;14.15;12.77;;;12.10;99.90;;;;;;4981466;28;20154;-85
2022/09/11 05:54:04;;;;;;;11.93;9.30;;;12.20;99.90;;;;;;5006068;28;20460;-85
2022/09/11 05:56:30;;;;;;;13.73;12.32;;;12.20;99.90;;;;;;4991506;28;20046;-85
2022/09/11 05:58:56;;;;;;;13.13;11.75;;;12.30;99.90;;;;;;5011361;28;20046;-85
2022/09/11 06:01:25;;;;;;;13.43;11.90;;;12.30;99.90;;;;;;5012590;28;20393;-85
2022/09/11 06:03:51;;;;;;;16.98;11.98;;;12.30;99.90;;;;;;5013565;28;20057;-85
2022/09/11 06:06:18;;;;;;;13.63;12.27;;;12.40;99.90;;;;;;5012640;28;20050;-85
2022/09/11 06:08:46;;;;;;;30.90;10.80;;;12.40;99.90;;;;;;5014357;28;20056;-85
2022/09/11 06:11:13;;;;;;;42.47;13.40;;;12.40;99.90;;;;;;4997504;28;20455;-85
2022/09/11 06:13:41;;;;;;;602.97;32.97;;;12.60;99.90;;;;;;4984579;28;20045;-85
2022/09/11 06:16:12;;;;;;;21.92;13.35;;;12.60;99.90;;;;;;4999790;28;20400;-85
2022/09/11 06:18:38;;;;;;;76.50;14.52;;;12.60;99.90;;;;;;4976970;28;20488;-85
2022/09/11 06:21:07;;;;;;;76.28;15.52;;;12.60;99.90;;;;;;5009415;28;20045;-85
2022/09/11 06:23:38;;;;;;;48.78;15.73;;;12.70;99.90;;;;;;4977118;28;20042;-85
2022/09/11 06:26:07;;;;;;;22.35;13.82;;;12.70;99.90;;;;;;4995832;28;20046;-85
2022/09/11 06:28:35;;;;;;;17.90;13.32;;;12.70;99.90;;;;;;4982917;28;20143;-85
2022/09/11 06:31:01;;;;;;;19.00;13.75;;;12.80;99.90;;;;;;4985498;28;20081;-85
2022/09/11 06:33:36;;;;;;;21.80;15.57;;;12.90;99.90;;;;;;4978611;28;20411;-85
2022/09/11 06:36:04;;;;;;;17.65;13.35;;;13.00;99.90;;;;;;4990274;28;20129;-84
2022/09/11 06:38:30;;;;;;;10.75;9.55;;;13.10;99.90;;;;;;4970322;28;20109;-85
2022/09/11 06:41:01;;;;;;;15.88;13.95;;;13.10;99.90;;;;;;4993812;28;20050;-84
2022/09/11 06:43:27;;;;;;;12.25;10.98;;;13.30;99.90;;;;;;4988643;28;20488;-84
2022/09/11 06:45:53;;;;;;;18.73;15.32;;;13.30;99.90;;;;;;4986205;28;20117;-84
2022/09/11 06:48:19;;;;;;;16.27;14.52;;;13.40;99.90;;;;;;4994247;28;20560;-84
2022/09/11 06:50:45;;;;;;;17.80;14.20;;;13.50;99.90;;;;;;4994231;28;20117;-84
2022/09/11 06:53:13;;;;;;;16.90;13.85;;;13.60;99.90;;;;;;4994100;28;20055;-84
2022/09/11 06:55:39;;;;;;;16.80;14.60;;;13.60;99.90;;;;;;4995950;28;20054;-84
2022/09/11 06:58:06;;;;;;;19.88;16.83;;;13.70;99.90;;;;;;5003880;28;20120;-86
2022/09/11 07:00:33;;;;;;;22.42;16.95;;;13.80;99.90;;;;;;4982922;28;20122;-85
2022/09/11 07:03:00;;;;;;;17.33;13.43;;;13.90;99.90;;;;;;5003453;28;20050;-84
2022/09/11 07:05:26;;;;;;;18.20;16.25;;;14.00;99.90;;;;;;4984290;28;20500;-85
2022/09/11 07:07:54;;;;;;;19.90;17.00;;;14.10;99.90;;;;;;4964614;28;20050;-88
2022/09/11 07:10:20;;;;;;;22.80;16.63;;;14.20;99.90;;;;;;4983391;28;20488;-85
2022/09/11 07:12:46;;;;;;;19.75;16.13;;;14.30;99.90;;;;;;4985789;28;20165;-84
2022/09/11 07:15:11;;;;;;;19.52;17.17;;;14.40;99.90;;;;;;4987165;28;20444;-84
2022/09/11 07:17:37;;;;;;;11.18;10.13;;;14.60;99.90;;;;;;4984101;28;20125;-84
2022/09/11 07:20:04;;;;;;;24.38;17.60;;;14.60;99.90;;;;;;5007058;28;20072;-84
2022/09/11 07:22:30;;;;;;;24.10;16.70;;;14.70;99.90;;;;;;5004004;28;20434;-85
2022/09/11 07:24:56;;;;;;;22.95;17.88;;;14.80;99.90;;;;;;5013077;28;20133;-85
2022/09/11 07:27:22;;;;;;;20.70;18.02;;;14.90;99.90;;;;;;5004971;28;20061;-84
2022/09/11 07:29:48;;;;;;;19.92;16.00;;;15.00;99.90;;;;;;5001953;28;20125;-85
2022/09/11 07:32:13;;;;;;;20.02;16.90;;;15.10;99.90;;;;;;5002632;28;20457;-85
2022/09/11 07:34:39;;;;;;;17.48;15.30;;;15.20;99.90;;;;;;4989672;28;20499;-85
2022/09/11 07:37:05;;;;;;;17.50;15.43;;;15.30;99.90;;;;;;4999750;28;20046;-84
2022/09/11 07:39:34;;;;;;;18.55;14.52;;;15.40;99.90;;;;;;4983666;28;20089;-84
2022/09/11 07:41:59;;;;;;;15.63;12.98;;;15.50;99.90;;;;;;4999451;28;20061;-84
2022/09/11 07:44:25;;;;;;;21.80;16.23;;;15.60;99.90;;;;;;4999510;28;20045;-85
2022/09/11 07:46:51;;;;;;;14.63;12.15;;;15.70;99.90;;;;;;5016998;28;20049;-84
2022/09/11 07:49:17;;;;;;;12.38;10.25;;;15.80;99.90;;;;;;4999093;28;20595;-83
2022/09/11 07:51:43;;;;;;;11.20;10.10;;;15.90;99.90;;;;;;5015922;28;20053;-84
2022/09/11 07:54:09;;;;;;;18.75;14.10;;;16.00;99.90;;;;;;4999387;28;20050;-84
2022/09/11 07:56:35;;;;;;;14.65;13.15;;;16.10;99.90;;;;;;5016184;28;20068;-84
2022/09/11 07:59:05;;;;;;;7.68;6.88;;;16.20;99.90;;;;;;4999224;28;20475;-84
2022/09/11 08:01:32;;;;;;;14.43;12.70;;;16.30;99.90;;;;;;4983587;28;20042;-84
2022/09/11 08:04:00;;;;;;;14.80;13.30;;;16.40;99.90;;;;;;4999262;28;20565;-84
2022/09/11 08:06:28;;;;;;;13.98;12.23;;;16.60;99.90;;;;;;4999517;28;20096;-84
2022/09/11 08:08:56;;;;;;;15.73;12.70;;;16.70;99.90;;;;;;5016395;28;20476;-86
2022/09/11 08:11:22;;;;;;;10.45;9.35;;;16.90;99.90;;;;;;4983497;28;20504;-85
2022/09/11 08:13:50;;;;;;;15.30;11.95;;;17.00;99.90;;;;;;4999367;28;20132;-84
2022/09/11 08:16:18;;;;;;;13.65;12.00;;;17.20;99.90;;;;;;4999166;28;20054;-85
2022/09/11 08:18:44;;;;;;;14.25;12.30;;;17.30;99.90;;;;;;5016755;28;20088;-85
2022/09/11 08:21:11;;;;;;;12.77;10.25;;;17.40;99.90;;;;;;4999211;28;20092;-84
2022/09/11 08:23:41;;;;;;;14.23;11.50;;;17.50;99.90;;;;;;4998665;28;20049;-84
2022/09/11 08:26:10;;;;;;;11.57;8.40;;;17.70;99.90;;;;;;4998819;28;20053;-85
2022/09/11 08:28:37;;;;;;;12.20;10.88;;;17.80;99.90;;;;;;5016618;28;20093;-86
2022/09/11 08:31:04;;;;;;;15.70;10.73;;;17.90;99.90;;;;;;5016570;28;20042;-85
2022/09/11 08:33:34;;;;;;;14.15;9.27;;;18.00;99.90;;;;;;5017284;28;20088;-86
2022/09/11 08:36:02;;;;;;;11.70;9.68;;;18.10;99.90;;;;;;5017045;28;20054;-86
2022/09/11 08:38:29;;;;;;;9.95;7.93;;;18.30;99.90;;;;;;5000207;28;20580;-85
2022/09/11 08:40:57;;;;;;;9.93;8.98;;;18.50;99.90;;;;;;4983416;28;20518;-85
2022/09/11 08:43:32;;;;;;;10.85;8.10;;;18.60;99.90;;;;;;5000737;28;20404;-85
2022/09/11 08:46:05;;;;;;;10.05;8.18;;;18.90;99.90;;;;;;5019157;28;20050;-85
2022/09/11 08:48:42;;;;;;;11.88;8.43;;;19.10;99.90;;;;;;5018342;28;20403;-85
2022/09/11 08:51:15;;;;;;;10.88;8.10;;;19.10;99.90;;;;;;5020999;28;20046;-86
2022/09/11 08:53:41;;;;;;;9.48;7.35;;;19.10;99.90;;;;;;5018984;28;20050;-85
2022/09/11 08:56:14;;;;;;;7.85;5.10;;;19.30;99.90;;;;;;5000755;28;20046;-86
2022/09/11 08:58:56;;;;;;;6.50;5.07;;;19.80;99.90;;;;;;5016094;28;20057;-86
2022/09/11 09:01:30;;;;;;;9.70;4.70;;;20.40;99.90;;;;;;4998561;28;20057;-85
2022/09/11 09:04:15;;;;;;;6.60;3.80;;;20.40;99.90;;;;;;4998362;28;20049;-85
2022/09/11 09:07:06;;;;;;;4.47;3.47;;;20.20;99.90;;;;;;5015970;28;20128;-86
2022/09/11 09:09:43;;;;;;;6.10;4.15;;;20.00;99.90;;;;;;4998140;28;20038;-86
2022/09/11 09:12:50;;;;;;;7.03;4.65;;;19.90;99.90;;;;;;5015455;28;20520;-85
2022/09/11 09:15:40;;;;;;;7.50;4.80;;;20.00;99.90;;;;;;4998231;28;20049;-85
2022/09/11 09:18:15;;;;;;;5.38;3.92;;;20.00;99.90;;;;;;5015512;28;20057;-85
2022/09/11 09:20:45;;;;;;;6.75;4.65;;;20.10;99.90;;;;;;5015387;28;20049;-85
2022/09/11 09:23:27;;;;;;;9.57;4.30;;;20.40;99.90;;;;;;4998003;28;20061;-85
2022/09/11 09:25:55;;;;;;;6.00;3.13;;;21.10;99.90;;;;;;5015377;28;20296;-85
2022/09/11 09:28:36;;;;;;;4.80;2.55;;;21.90;99.90;;;;;;5015214;28;20053;-85
2022/09/11 09:31:07;;;;;;;2.65;1.95;;;22.60;99.90;;;;;;4997709;28;20107;-85
2022/09/11 09:33:37;;;;;;;3.80;2.00;;;23.30;99.90;;;;;;5014582;28;20046;-85
2022/09/11 09:36:15;;;;;;;4.25;2.35;;;23.90;99.90;;;;;;5017197;28;20046;-85
2022/09/11 09:38:41;;;;;;;7.28;3.50;;;24.60;99.90;;;;;;4999108;28;20042;-83
2022/09/11 09:41:37;;;;;;;4.10;2.13;;;25.10;99.90;;;;;;4998087;28;20046;-85
2022/09/11 09:44:33;;;;;;;3.15;1.98;;;25.00;99.90;;;;;;4997695;28;20089;-85
2022/09/11 09:46:58;;;;;;;3.17;2.30;;;24.30;99.90;;;;;;4981013;28;20049;-85
2022/09/11 09:49:32;;;;;;;6.22;2.72;;;23.50;99.90;;;;;;5014404;28;20641;-86
2022/09/11 09:52:18;;;;;;;3.95;2.30;;;22.80;99.90;;;;;;4981977;28;20103;-86
2022/09/11 09:55:03;;;;;;;5.35;2.42;;;22.10;99.90;;;;;;4997613;28;20050;-86
2022/09/11 09:57:35;;;;;;;4.90;2.25;;;21.70;99.90;;;;;;4996777;28;20041;-86
2022/09/11 10:00:03;;;;;;;5.03;1.90;;;22.20;99.90;;;;;;5014853;28;20038;-86
2022/09/11 10:02:40;;;;;;;3.67;1.70;;;23.50;99.90;;;;;;4997111;28;20058;-86
2022/09/11 10:05:12;;;;;;;4.10;1.35;;;24.80;99.90;;;;;;5014737;28;20056;-86
2022/09/11 10:07:49;;;;;;;4.00;1.65;;;26.00;99.90;;;;;;4996990;28;20077;-86
2022/09/11 10:10:37;;;;;;;5.32;2.00;;;27.10;99.90;;;;;;4997066;28;20495;-86
2022/09/11 10:13:21;;;;;;;2.63;1.40;;;28.00;99.90;;;;;;4981548;28;20483;-86
2022/09/11 10:15:48;;;;;;;4.50;1.52;;;28.20;78.90;;;;;;5013375;28;20060;-87
2022/09/11 10:18:42;;;;;;;3.13;1.23;;;28.00;81.80;;;;;;5014750;28;20049;-87
2022/09/11 10:21:11;;;;;;;2.28;1.15;;;28.10;99.30;;;;;;4995162;28;20096;-86
2022/09/11 10:24:12;;;;;;;3.03;1.40;;;28.10;83.00;;;;;;4996832;28;20045;-86
2022/09/11 10:26:49;;;;;;;3.55;1.20;;;28.10;96.90;;;;;;4991073;28;20129;-86
2022/09/11 10:29:23;;;;;;;3.05;1.20;;;28.00;92.30;;;;;;5014292;28;20085;-86
2022/09/11 10:31:54;;;;;;;3.78;1.23;;;27.90;84.50;;;;;;4997094;28;20092;-86
2022/09/11 10:34:22;;;;;;;4.22;1.70;;;28.00;91.00;;;;;;5014117;28;20566;-86
2022/09/11 10:36:55;;;;;;;5.90;1.52;;;28.40;82.00;;;;;;5014613;28;20527;-86
2022/09/11 10:39:24;;;;;;;5.13;1.80;;;28.40;75.20;;;;;;5014673;28;20503;-86
2022/09/11 10:41:53;;;;;;;5.22;2.00;;;27.90;76.00;;;;;;5014371;28;20056;-86
2022/09/11 10:44:21;;;;;;;5.68;1.90;;;27.10;77.40;;;;;;4996486;28;20057;-86
2022/09/11 10:47:02;;;;;;;3.75;1.73;;;26.10;90.50;;;;;;5014330;28;20050;-86
2022/09/11 10:49:28;;;;;;;3.40;1.80;;;25.60;97.20;;;;;;4996469;28;20050;-86
2022/09/11 10:52:14;;;;;;;3.35;1.50;;;26.20;89.20;;;;;;5014030;28;20057;-86
2022/09/11 10:54:59;;;;;;;4.15;1.27;;;26.70;81.70;;;;;;5016392;28;20046;-84
2022/09/11 10:57:48;;;;;;;3.55;1.45;;;27.30;82.10;;;;;;5014206;28;20053;-86
2022/09/11 11:00:21;;;;;;;3.35;1.48;;;28.10;67.90;;;;;;5014690;28;20049;-86
2022/09/11 11:02:54;;;;;;;3.80;1.70;;;28.80;69.60;;;;;;4997995;28;20553;-87
2022/09/11 11:05:57;;;;;;;4.07;1.33;;;29.60;67.00;;;;;;5013547;28;20517;-86
2022/09/11 11:08:57;;;;;;;2.83;1.35;;;30.40;59.10;;;;;;4996732;28;20041;-86
2022/09/11 11:11:31;;;;;;;1.98;1.13;;;30.80;63.70;;;;;;4997081;28;20068;-85
2022/09/11 11:14:15;;;;;;;4.95;1.20;;;31.30;61.30;;;;;;4996901;28;20052;-86
2022/09/11 11:17:17;;;;;;;3.45;1.27;;;31.60;59.90;;;;;;4980498;28;20050;-86
2022/09/11 11:20:19;;;;;;;3.58;1.05;;;31.30;57.60;;;;;;5013063;28;20077;-86
2022/09/11 11:22:59;;;;;;;4.35;1.40;;;29.90;59.30;;;;;;5013431;28;20042;-86
2022/09/11 11:25:49;;;;;;;;;;;28.30;62.50;;;;;;5014870;28;20054;-86
2022/09/11 11:28:30;;;;;;;4.07;1.40;;;27.10;65.60;;;;;;5013048;28;20000;-86
2022/09/11 11:31:05;;;;;;;3.75;1.55;;;26.00;72.80;;;;;;5013557;28;20050;-86
2022/09/11 11:34:05;;;;;;;3.15;1.23;;;25.10;87.40;;;;;;4996157;28;20052;-86
2022/09/11 11:36:44;;;;;;;7.45;2.72;;;24.60;95.30;;;;;;4996056;28;20104;-86
2022/09/11 11:39:23;;;;;;;3.83;1.45;;;24.90;93.90;;;;;;4995809;28;20046;-86
2022/09/11 11:41:57;;;;;;;2.70;1.40;;;25.50;93.10;;;;;;4980197;28;20058;-86
2022/09/11 11:44:37;;;;;;;2.30;1.20;;;26.30;82.30;;;;;;5014301;28;20050;-87
2022/09/11 11:47:05;;;;;;;4.82;1.58;;;27.20;76.90;;;;;;4996490;28;20097;-87
2022/09/11 11:49:43;;;;;;;3.45;1.10;;;27.80;69.20;;;;;;5013399;28;20164;-87
2022/09/11 11:52:18;;;;;;;1.50;0.82;;;28.10;66.40;;;;;;4996123;28;20054;-87
2022/09/11 11:54:51;;;;;;;4.60;0.95;;;28.40;66.70;;;;;;4996085;28;20050;-87
2022/09/11 11:57:24;;;;;;;3.05;0.90;;;28.60;62.70;;;;;;4982158;28;20057;-87
2022/09/11 12:00:06;;;;;;;2.03;0.90;;;28.50;62.90;;;;;;5016708;28;20403;-87
2022/09/11 12:02:48;;;;;;;1.65;0.80;;;28.60;61.70;;;;;;4999366;28;20502;-87
2022/09/11 12:05:23;;;;;;;4.10;0.90;;;29.00;61.50;;;;;;5001141;28;20131;-86
2022/09/11 12:07:49;;;;;;;3.20;1.10;;;29.00;58.40;;;;;;5001466;28;20073;-87
2022/09/11 12:10:37;;;;;;;1.65;1.00;;;28.70;60.00;;;;;;5001090;28;20529;-87
2022/09/11 12:13:12;;;;;;;2.20;1.10;;;28.30;61.70;;;;;;5017418;28;20049;-86
2022/09/11 12:15:38;;;;;;;2.50;1.20;;;27.90;62.50;;;;;;5000998;28;20045;-86
2022/09/11 12:18:22;;;;;;;2.55;0.88;;;27.20;63.10;;;;;;5004544;28;20069;-86
2022/09/11 12:20:47;;;;;;;4.63;1.70;;;26.30;65.80;;;;;;5021936;28;20496;-86
2022/09/11 12:23:34;;;;;;;5.60;1.33;;;25.50;72.10;;;;;;4986743;28;20100;-89
2022/09/11 12:26:23;;;;;;;2.60;1.13;;;24.90;80.90;;;;;;5001111;28;20053;-86
2022/09/11 12:29:10;;;;;;;3.33;1.50;;;24.70;92.30;;;;;;5003597;28;20053;-87
2022/09/11 12:31:48;;;;;;;4.53;1.23;;;25.30;94.40;;;;;;5023675;28;20137;-87
2022/09/11 12:34:37;;;;;;;2.30;1.30;;;26.10;80.60;;;;;;5001890;28;20399;-86
2022/09/11 12:37:13;;;;;;;2.65;1.00;;;26.70;73.20;;;;;;5001603;28;20499;-88
2022/09/11 12:39:51;;;;;;;2.00;1.23;;;27.40;67.20;;;;;;5002767;28;20423;-85
2022/09/11 12:42:22;;;;;;;4.03;1.00;;;27.80;65.90;;;;;;5018014;28;20105;-87
2022/09/11 12:44:48;;;;;;;4.65;1.30;;;28.00;63.70;;;;;;4998818;28;20054;-88
2022/09/11 12:47:26;;;;;;;2.05;1.02;;;27.90;63.40;;;;;;4998867;28;20391;-87
2022/09/11 12:50:01;;;;;;;2.08;1.00;;;27.50;63.00;;;;;;5015945;28;20133;-86
2022/09/11 12:52:45;;;;;;;4.88;1.10;;;27.10;65.20;;;;;;4998685;28;20054;-87
2022/09/11 12:55:34;;;;;;;2.67;0.90;;;26.50;67.90;;;;;;4998795;28;20056;-85
2022/09/11 12:58:05;;;;;;;2.53;1.10;;;26.10;68.30;;;;;;4998726;28;20058;-86
2022/09/11 13:00:40;;;;;;;2.60;1.10;;;25.70;68.40;;;;;;5016046;28;20050;-85